Terminal Aerodrome Forecast
Issued by NWS

Current Version | Previous Version | Graphics & Text | Print | Product List | Glossary On
Versions: 1 2 3 4 5 6 7 8 9 10 11 12 13 14 15 16 17
000
FTUS41 KILN 130200 AAB
TAFLCK
TAF AMD
KLCK 130256Z 1303/1324 07003KT P6SM OVC035
     FM130600 02004KT P6SM OVC025
     FM130900 33007KT P6SM OVC020
     FM131500 32011KT P6SM SCT025 BKN035
     FM132200 34009KT P6SM SCT035=

USA.gov is the U.S. government's official web portal to all federal, state and local government web resources and services.